Aviation Digital Data Service (ADDS)

Output produced by METARs form (2159 UTC 16 February 2019)
found at http://www.aviationweather.gov/metar/data/
 
Forecast for: LFKF (FIGARI (AUT) , FR)
Text: TAF LFKF 161400Z 1615/1715 24006KT CAVOK
Forecast period: 1500 UTC 16 February 2019 to 1500 UTC 17 February 2019
Forecast type: FROM: standard forecast or significant change
Winds: from the WSW (240 degrees) at 7 MPH (6 knots; 3.1 m/s)
Visibility: 6 or more miles 10+ km)
Ceiling: unknown
Clouds: missing
Weather: NSW  (no significant weather)